Airfield :
LOGIN :

Register | Disclaimer

   EN    FR    IT 

 










Legend :    VFR   Marginal VFR   IFR   Intensive IFR   Very Intensive IFR
Visi :
Ceiling :
>= 8 km
>= 3000ft
5 to 8 km
1000 to 3000 ft
1500m to 5 km
500 to 1000 ft
800 to 1500m
200 to 500 ft
< 800m
< 200 ft
Symbols :   Thunderstorms  Fog  Heavy snow  Heavy precipitations  Wind > 20 kt
SIGMETs :     Misc.  Thunderstorms  Icing  Turbulence  Mountain Waves  Volcanic Ashes






- Airport Elevation : 327 ft
- IATA code : BHX


EGBB - Birmingham

CURRENT METAR :
  • 130750Z 27010KT 230V290 9999 SCT022 BKN030 06/03 Q0976

EXPIRED METARs :
  • 130720Z 27010KT 9999 SCT025 BKN030 06/03 Q0976
  • 130650Z 28010KT 9999 SCT024 BKN030 06/03 Q0975
  • 130620Z 27010KT 9999 SCT023 BKN030 06/04 Q0974
  • 130550Z 27009KT 250V310 9999 FEW025 OVC030 06/04 Q0974
  • 130520Z 28009KT 9999 FEW016 SCT026 BKN048 06/04 Q0973

TAF TAF EGBB
Valid from the 13 at 06:00 until the 14 at 06:00 UTC


130458Z 1306/1406 28012KT 9999 SCT012
TEMPO 1306/1318 6000 SHRA BKN012
TEMPO 1306/1406 26015G25KT
PROB30
TEMPO 1318/1406 8000 -SHRA BKN012
ATIS : +44 121 780 0910



MET'MAP, your aeronautical weather chart ! - Copyright ORBIFLY December 2007 - Disclaimer

ORBIFLY MET'MAP TEAM :

Programming & Development : Alexandra Zaïnal
Concept & original design : Baudouin d'Aumeries
Assistance for programming : Marc-Olivier Méhu
Technical & hardware support : Manuel Goepfert

Contact : metmap@orbifly.com




SOURCES & CREDITS :

   NOAA